sensor_id;sensor_type;location;lat;lon;timestamp;temperature;humidity
74368;DHT22;64991;41.090;-8.118;2023-09-19T00:02:25;23.80;79.60
74368;DHT22;64991;41.090;-8.118;2023-09-19T00:07:28;23.80;79.40
74368;DHT22;64991;41.090;-8.118;2023-09-19T00:12:33;23.70;79.40
74368;DHT22;64991;41.090;-8.118;2023-09-19T00:17:37;23.80;79.50
74368;DHT22;64991;41.090;-8.118;2023-09-19T00:22:42;23.80;79.50
74368;DHT22;64991;41.090;-8.118;2023-09-19T00:27:47;23.70;79.40
74368;DHT22;64991;41.090;-8.118;2023-09-19T00:32:53;23.80;79.50
74368;DHT22;64991;41.090;-8.118;2023-09-19T00:37:57;23.80;79.50
74368;DHT22;64991;41.090;-8.118;2023-09-19T00:43:02;23.70;79.40
74368;DHT22;64991;41.090;-8.118;2023-09-19T00:48:06;23.70;79.20
74368;DHT22;64991;41.090;-8.118;2023-09-19T00:53:12;23.70;79.30
74368;DHT22;64991;41.090;-8.118;2023-09-19T00:58:19;23.70;79.30
74368;DHT22;64991;41.090;-8.118;2023-09-19T01:03:24;23.70;79.50
74368;DHT22;64991;41.090;-8.118;2023-09-19T01:08:27;23.70;79.30
74368;DHT22;64991;41.090;-8.118;2023-09-19T01:13:34;23.80;79.00
74368;DHT22;64991;41.090;-8.118;2023-09-19T01:18:50;23.70;79.00
74368;DHT22;64991;41.090;-8.118;2023-09-19T01:24:07;23.70;79.10
74368;DHT22;64991;41.090;-8.118;2023-09-19T01:29:42;23.70;79.20
74368;DHT22;64991;41.090;-8.118;2023-09-19T01:34:49;23.70;79.10
74368;DHT22;64991;41.090;-8.118;2023-09-19T01:39:56;23.80;79.10
74368;DHT22;64991;41.090;-8.118;2023-09-19T01:45:11;23.80;79.10
74368;DHT22;64991;41.090;-8.118;2023-09-19T01:50:20;23.70;78.90
74368;DHT22;64991;41.090;-8.118;2023-09-19T01:55:29;23.70;78.90
74368;DHT22;64991;41.090;-8.118;2023-09-19T02:00:34;23.70;78.80
74368;DHT22;64991;41.090;-8.118;2023-09-19T02:05:41;23.70;78.90
74368;DHT22;64991;41.090;-8.118;2023-09-19T02:10:52;23.70;78.80
74368;DHT22;64991;41.090;-8.118;2023-09-19T02:15:55;23.70;78.70
74368;DHT22;64991;41.090;-8.118;2023-09-19T02:21:00;23.70;78.80
74368;DHT22;64991;41.090;-8.118;2023-09-19T02:26:04;23.70;78.70
74368;DHT22;64991;41.090;-8.118;2023-09-19T02:31:08;23.70;78.80
74368;DHT22;64991;41.090;-8.118;2023-09-19T02:36:14;23.70;78.70
74368;DHT22;64991;41.090;-8.118;2023-09-19T02:41:19;23.70;78.90
74368;DHT22;64991;41.090;-8.118;2023-09-19T02:46:22;23.70;78.60
74368;DHT22;64991;41.090;-8.118;2023-09-19T02:51:27;23.60;78.60
74368;DHT22;64991;41.090;-8.118;2023-09-19T02:56:31;23.70;78.70
74368;DHT22;64991;41.090;-8.118;2023-09-19T03:01:34;23.70;78.60
74368;DHT22;64991;41.090;-8.118;2023-09-19T03:06:40;23.70;78.60
74368;DHT22;64991;41.090;-8.118;2023-09-19T03:11:44;23.70;78.40
74368;DHT22;64991;41.090;-8.118;2023-09-19T03:16:48;23.70;78.40
74368;DHT22;64991;41.090;-8.118;2023-09-19T03:21:55;23.70;78.50
74368;DHT22;64991;41.090;-8.118;2023-09-19T03:26:59;23.70;78.30
74368;DHT22;64991;41.090;-8.118;2023-09-19T03:32:03;23.70;78.40
74368;DHT22;64991;41.090;-8.118;2023-09-19T03:37:09;23.70;78.30
74368;DHT22;64991;41.090;-8.118;2023-09-19T03:42:12;23.70;78.20
74368;DHT22;64991;41.090;-8.118;2023-09-19T03:47:16;23.60;78.20
74368;DHT22;64991;41.090;-8.118;2023-09-19T03:52:21;23.70;78.10
74368;DHT22;64991;41.090;-8.118;2023-09-19T03:57:24;23.70;78.40
74368;DHT22;64991;41.090;-8.118;2023-09-19T04:02:28;23.60;78.30
74368;DHT22;64991;41.090;-8.118;2023-09-19T04:07:36;23.70;78.10
74368;DHT22;64991;41.090;-8.118;2023-09-19T04:12:40;23.70;78.20
74368;DHT22;64991;41.090;-8.118;2023-09-19T04:17:43;23.70;78.10
74368;DHT22;64991;41.090;-8.118;2023-09-19T04:22:48;23.70;78.20
74368;DHT22;64991;41.090;-8.118;2023-09-19T04:27:52;23.60;78.00
74368;DHT22;64991;41.090;-8.118;2023-09-19T04:32:55;23.60;78.90
74368;DHT22;64991;41.090;-8.118;2023-09-19T04:38:00;23.60;78.00
74368;DHT22;64991;41.090;-8.118;2023-09-19T04:43:05;23.70;78.00
74368;DHT22;64991;41.090;-8.118;2023-09-19T04:48:09;23.60;78.00
74368;DHT22;64991;41.090;-8.118;2023-09-19T04:53:14;23.70;78.00
74368;DHT22;64991;41.090;-8.118;2023-09-19T04:58:19;23.60;78.50
74368;DHT22;64991;41.090;-8.118;2023-09-19T05:03:23;23.60;78.30
74368;DHT22;64991;41.090;-8.118;2023-09-19T05:08:28;23.50;78.60
74368;DHT22;64991;41.090;-8.118;2023-09-19T05:13:31;23.70;77.70
74368;DHT22;64991;41.090;-8.118;2023-09-19T05:18:35;23.60;77.90
74368;DHT22;64991;41.090;-8.118;2023-09-19T05:23:40;23.60;78.60
74368;DHT22;64991;41.090;-8.118;2023-09-19T05:28:44;23.60;78.00
74368;DHT22;64991;41.090;-8.118;2023-09-19T05:33:47;23.60;78.00
74368;DHT22;64991;41.090;-8.118;2023-09-19T05:38:53;23.60;77.80
74368;DHT22;64991;41.090;-8.118;2023-09-19T05:43:57;23.60;78.60
74368;DHT22;64991;41.090;-8.118;2023-09-19T05:49:04;23.60;78.50
74368;DHT22;64991;41.090;-8.118;2023-09-19T05:54:09;23.60;78.40
74368;DHT22;64991;41.090;-8.118;2023-09-19T05:59:14;23.50;78.60
74368;DHT22;64991;41.090;-8.118;2023-09-19T06:04:18;23.60;78.40
74368;DHT22;64991;41.090;-8.118;2023-09-19T06:09:23;23.70;77.80
74368;DHT22;64991;41.090;-8.118;2023-09-19T06:14:29;23.50;78.30
74368;DHT22;64991;41.090;-8.118;2023-09-19T06:19:33;23.60;78.30
74368;DHT22;64991;41.090;-8.118;2023-09-19T06:24:38;23.60;78.40
74368;DHT22;64991;41.090;-8.118;2023-09-19T06:29:41;23.60;78.40
74368;DHT22;64991;41.090;-8.118;2023-09-19T06:34:45;23.60;78.20
74368;DHT22;64991;41.090;-8.118;2023-09-19T06:39:50;23.60;78.50
74368;DHT22;64991;41.090;-8.118;2023-09-19T06:44:54;23.50;78.20
74368;DHT22;64991;41.090;-8.118;2023-09-19T06:49:58;23.50;78.10
74368;DHT22;64991;41.090;-8.118;2023-09-19T06:55:06;23.60;78.10
74368;DHT22;64991;41.090;-8.118;2023-09-19T07:00:11;23.50;78.10
74368;DHT22;64991;41.090;-8.118;2023-09-19T07:05:20;23.50;77.90
74368;DHT22;64991;41.090;-8.118;2023-09-19T07:10:26;23.50;77.90
74368;DHT22;64991;41.090;-8.118;2023-09-19T07:15:31;23.60;78.00
74368;DHT22;64991;41.090;-8.118;2023-09-19T07:20:37;23.50;77.90
74368;DHT22;64991;41.090;-8.118;2023-09-19T07:25:42;23.50;77.80
74368;DHT22;64991;41.090;-8.118;2023-09-19T07:30:46;23.50;78.00
74368;DHT22;64991;41.090;-8.118;2023-09-19T07:35:49;23.50;78.20
74368;DHT22;64991;41.090;-8.118;2023-09-19T07:40:59;23.50;78.00
74368;DHT22;64991;41.090;-8.118;2023-09-19T07:46:05;23.40;78.10
74368;DHT22;64991;41.090;-8.118;2023-09-19T07:51:10;23.50;78.30
74368;DHT22;64991;41.090;-8.118;2023-09-19T07:56:17;23.50;78.10
74368;DHT22;64991;41.090;-8.118;2023-09-19T08:01:22;23.50;78.20
74368;DHT22;64991;41.090;-8.118;2023-09-19T08:06:25;23.50;78.10
74368;DHT22;64991;41.090;-8.118;2023-09-19T08:11:33;23.50;78.20
74368;DHT22;64991;41.090;-8.118;2023-09-19T08:16:37;23.50;78.30
74368;DHT22;64991;41.090;-8.118;2023-09-19T08:21:40;23.50;78.40
74368;DHT22;64991;41.090;-8.118;2023-09-19T08:26:48;23.50;78.10
74368;DHT22;64991;41.090;-8.118;2023-09-19T08:31:53;23.50;78.10
74368;DHT22;64991;41.090;-8.118;2023-09-19T08:36:58;23.60;78.30
74368;DHT22;64991;41.090;-8.118;2023-09-19T08:42:03;23.50;78.20
74368;DHT22;64991;41.090;-8.118;2023-09-19T08:47:09;23.50;78.10
74368;DHT22;64991;41.090;-8.118;2023-09-19T08:52:16;23.60;78.20
74368;DHT22;64991;41.090;-8.118;2023-09-19T08:57:26;23.60;78.20
74368;DHT22;64991;41.090;-8.118;2023-09-19T09:02:31;23.60;78.40
74368;DHT22;64991;41.090;-8.118;2023-09-19T09:07:36;23.50;78.20
74368;DHT22;64991;41.090;-8.118;2023-09-19T09:12:42;23.50;78.40
74368;DHT22;64991;41.090;-8.118;2023-09-19T09:17:46;23.60;78.30
74368;DHT22;64991;41.090;-8.118;2023-09-19T09:22:52;23.60;78.40
74368;DHT22;64991;41.090;-8.118;2023-09-19T09:28:01;23.60;78.40
74368;DHT22;64991;41.090;-8.118;2023-09-19T09:33:08;23.70;77.90
74368;DHT22;64991;41.090;-8.118;2023-09-19T09:38:14;23.60;78.60
74368;DHT22;64991;41.090;-8.118;2023-09-19T09:43:28;23.70;78.00
74368;DHT22;64991;41.090;-8.118;2023-09-19T09:48:37;23.50;78.70
74368;DHT22;64991;41.090;-8.118;2023-09-19T09:53:41;23.60;78.00
74368;DHT22;64991;41.090;-8.118;2023-09-19T09:58:50;23.60;78.00
74368;DHT22;64991;41.090;-8.118;2023-09-19T10:03:58;23.60;78.80
74368;DHT22;64991;41.090;-8.118;2023-09-19T10:09:03;23.50;78.60
74368;DHT22;64991;41.090;-8.118;2023-09-19T10:14:15;23.60;78.70
74368;DHT22;64991;41.090;-8.118;2023-09-19T10:19:23;23.60;78.00
74368;DHT22;64991;41.090;-8.118;2023-09-19T10:24:29;23.60;78.60
74368;DHT22;64991;41.090;-8.118;2023-09-19T10:29:35;23.60;78.10
74368;DHT22;64991;41.090;-8.118;2023-09-19T10:34:39;23.60;78.60
74368;DHT22;64991;41.090;-8.118;2023-09-19T10:39:45;23.60;78.00
74368;DHT22;64991;41.090;-8.118;2023-09-19T10:44:52;23.70;78.30
74368;DHT22;64991;41.090;-8.118;2023-09-19T10:49:56;23.70;78.30
74368;DHT22;64991;41.090;-8.118;2023-09-19T10:55:00;23.70;78.30
74368;DHT22;64991;41.090;-8.118;2023-09-19T11:00:07;23.60;78.20
74368;DHT22;64991;41.090;-8.118;2023-09-19T11:05:26;23.70;78.20
74368;DHT22;64991;41.090;-8.118;2023-09-19T11:10:46;23.60;78.30
74368;DHT22;64991;41.090;-8.118;2023-09-19T11:21:40;23.70;78.30
74368;DHT22;64991;41.090;-8.118;2023-09-19T11:26:45;23.60;78.30
74368;DHT22;64991;41.090;-8.118;2023-09-19T11:31:51;23.70;78.40
74368;DHT22;64991;41.090;-8.118;2023-09-19T11:37:00;23.70;78.40
74368;DHT22;64991;41.090;-8.118;2023-09-19T11:42:17;23.60;78.70
74368;DHT22;64991;41.090;-8.118;2023-09-19T11:47:48;23.70;78.70
74368;DHT22;64991;41.090;-8.118;2023-09-19T11:52:52;23.70;78.50
74368;DHT22;64991;41.090;-8.118;2023-09-19T11:57:57;23.60;78.70
74368;DHT22;64991;41.090;-8.118;2023-09-19T12:03:11;23.70;78.60
74368;DHT22;64991;41.090;-8.118;2023-09-19T12:08:16;23.70;78.70
74368;DHT22;64991;41.090;-8.118;2023-09-19T12:13:23;23.70;78.90
74368;DHT22;64991;41.090;-8.118;2023-09-19T12:18:29;23.70;78.70
74368;DHT22;64991;41.090;-8.118;2023-09-19T12:23:33;23.70;78.70
74368;DHT22;64991;41.090;-8.118;2023-09-19T12:28:40;23.70;78.80
74368;DHT22;64991;41.090;-8.118;2023-09-19T12:33:46;23.70;78.70
74368;DHT22;64991;41.090;-8.118;2023-09-19T12:38:56;23.70;79.20
74368;DHT22;64991;41.090;-8.118;2023-09-19T12:44:01;23.70;78.80
74368;DHT22;64991;41.090;-8.118;2023-09-19T12:49:17;23.70;78.90
74368;DHT22;64991;41.090;-8.118;2023-09-19T12:54:21;23.70;78.50
74368;DHT22;64991;41.090;-8.118;2023-09-19T12:59:29;23.70;78.90
74368;DHT22;64991;41.090;-8.118;2023-09-19T13:04:36;23.70;78.80
74368;DHT22;64991;41.090;-8.118;2023-09-19T13:10:01;23.70;78.70
74368;DHT22;64991;41.090;-8.118;2023-09-19T13:15:09;23.80;78.60
74368;DHT22;64991;41.090;-8.118;2023-09-19T13:20:23;23.70;79.10
74368;DHT22;64991;41.090;-8.118;2023-09-19T13:25:29;23.70;78.90
74368;DHT22;64991;41.090;-8.118;2023-09-19T13:30:36;23.70;78.90
74368;DHT22;64991;41.090;-8.118;2023-09-19T13:35:45;23.70;78.40
74368;DHT22;64991;41.090;-8.118;2023-09-19T13:40:50;23.70;78.20
74368;DHT22;64991;41.090;-8.118;2023-09-19T13:45:54;23.70;78.80
74368;DHT22;64991;41.090;-8.118;2023-09-19T13:51:01;23.70;78.70
74368;DHT22;64991;41.090;-8.118;2023-09-19T13:56:05;23.70;78.60
74368;DHT22;64991;41.090;-8.118;2023-09-19T14:01:09;23.70;78.80
74368;DHT22;64991;41.090;-8.118;2023-09-19T14:06:16;23.70;78.50
74368;DHT22;64991;41.090;-8.118;2023-09-19T14:11:20;23.70;78.60
74368;DHT22;64991;41.090;-8.118;2023-09-19T14:16:23;23.70;78.50
74368;DHT22;64991;41.090;-8.118;2023-09-19T14:21:33;23.70;78.50
74368;DHT22;64991;41.090;-8.118;2023-09-19T14:26:38;23.70;78.70
74368;DHT22;64991;41.090;-8.118;2023-09-19T14:31:42;23.70;78.80
74368;DHT22;64991;41.090;-8.118;2023-09-19T14:36:47;23.70;79.10
74368;DHT22;64991;41.090;-8.118;2023-09-19T14:41:51;23.70;79.20
74368;DHT22;64991;41.090;-8.118;2023-09-19T14:46:55;23.70;79.00
74368;DHT22;64991;41.090;-8.118;2023-09-19T14:52:00;23.70;79.10
74368;DHT22;64991;41.090;-8.118;2023-09-19T14:57:05;23.70;79.10
74368;DHT22;64991;41.090;-8.118;2023-09-19T15:02:10;23.60;79.30
74368;DHT22;64991;41.090;-8.118;2023-09-19T15:07:17;23.70;79.20
74368;DHT22;64991;41.090;-8.118;2023-09-19T15:12:20;23.70;79.30
74368;DHT22;64991;41.090;-8.118;2023-09-19T15:17:24;23.80;79.40
74368;DHT22;64991;41.090;-8.118;2023-09-19T15:22:29;23.70;79.40
74368;DHT22;64991;41.090;-8.118;2023-09-19T15:27:32;23.70;79.30
74368;DHT22;64991;41.090;-8.118;2023-09-19T15:32:38;23.70;79.50
74368;DHT22;64991;41.090;-8.118;2023-09-19T15:37:44;23.80;79.30
74368;DHT22;64991;41.090;-8.118;2023-09-19T15:42:49;23.70;79.30
74368;DHT22;64991;41.090;-8.118;2023-09-19T15:47:52;23.70;79.50
74368;DHT22;64991;41.090;-8.118;2023-09-19T15:52:57;23.70;79.50
74368;DHT22;64991;41.090;-8.118;2023-09-19T15:58:01;23.80;79.60
74368;DHT22;64991;41.090;-8.118;2023-09-19T16:03:08;23.70;79.40
74368;DHT22;64991;41.090;-8.118;2023-09-19T16:08:13;23.70;79.50
74368;DHT22;64991;41.090;-8.118;2023-09-19T16:13:17;23.70;79.60
74368;DHT22;64991;41.090;-8.118;2023-09-19T16:18:21;23.70;79.40
74368;DHT22;64991;41.090;-8.118;2023-09-19T16:23:26;23.80;79.30
74368;DHT22;64991;41.090;-8.118;2023-09-19T16:28:29;23.80;79.60
74368;DHT22;64991;41.090;-8.118;2023-09-19T16:33:33;23.70;79.30
74368;DHT22;64991;41.090;-8.118;2023-09-19T16:38:40;23.80;79.70
74368;DHT22;64991;41.090;-8.118;2023-09-19T16:43:45;23.80;79.50
74368;DHT22;64991;41.090;-8.118;2023-09-19T16:48:50;23.80;79.50
74368;DHT22;64991;41.090;-8.118;2023-09-19T16:54:06;23.80;79.60
74368;DHT22;64991;41.090;-8.118;2023-09-19T16:59:11;23.80;79.40
74368;DHT22;64991;41.090;-8.118;2023-09-19T17:04:15;23.70;79.30
74368;DHT22;64991;41.090;-8.118;2023-09-19T17:09:20;23.80;79.20
74368;DHT22;64991;41.090;-8.118;2023-09-19T17:14:24;23.80;79.10
74368;DHT22;64991;41.090;-8.118;2023-09-19T17:19:28;23.80;78.90
74368;DHT22;64991;41.090;-8.118;2023-09-19T17:24:33;23.80;79.30
74368;DHT22;64991;41.090;-8.118;2023-09-19T17:29:37;23.70;79.20
74368;DHT22;64991;41.090;-8.118;2023-09-19T17:34:41;23.80;79.00
74368;DHT22;64991;41.090;-8.118;2023-09-19T17:39:46;23.70;78.90
74368;DHT22;64991;41.090;-8.118;2023-09-19T17:44:50;23.80;78.90
74368;DHT22;64991;41.090;-8.118;2023-09-19T17:49:54;23.70;79.10
74368;DHT22;64991;41.090;-8.118;2023-09-19T17:54:59;23.80;79.00
74368;DHT22;64991;41.090;-8.118;2023-09-19T18:00:04;23.80;79.00
74368;DHT22;64991;41.090;-8.118;2023-09-19T18:05:10;23.80;79.00
74368;DHT22;64991;41.090;-8.118;2023-09-19T18:10:19;23.80;78.90
74368;DHT22;64991;41.090;-8.118;2023-09-19T18:15:23;23.70;79.20
74368;DHT22;64991;41.090;-8.118;2023-09-19T18:20:27;23.70;79.10
74368;DHT22;64991;41.090;-8.118;2023-09-19T18:25:32;23.80;78.90
74368;DHT22;64991;41.090;-8.118;2023-09-19T18:30:36;23.80;78.80
74368;DHT22;64991;41.090;-8.118;2023-09-19T18:35:40;23.80;78.90
74368;DHT22;64991;41.090;-8.118;2023-09-19T18:40:45;23.80;78.90
74368;DHT22;64991;41.090;-8.118;2023-09-19T18:45:54;23.70;78.80
74368;DHT22;64991;41.090;-8.118;2023-09-19T18:51:03;23.80;78.90
74368;DHT22;64991;41.090;-8.118;2023-09-19T18:56:10;23.80;78.90
74368;DHT22;64991;41.090;-8.118;2023-09-19T19:01:15;23.80;78.90
74368;DHT22;64991;41.090;-8.118;2023-09-19T19:06:19;23.70;79.00
74368;DHT22;64991;41.090;-8.118;2023-09-19T19:11:25;23.80;78.90
74368;DHT22;64991;41.090;-8.118;2023-09-19T19:16:32;23.70;78.80
74368;DHT22;64991;41.090;-8.118;2023-09-19T19:21:37;23.80;79.10
74368;DHT22;64991;41.090;-8.118;2023-09-19T19:26:42;23.80;79.10
74368;DHT22;64991;41.090;-8.118;2023-09-19T19:31:46;23.70;79.20
74368;DHT22;64991;41.090;-8.118;2023-09-19T19:36:51;23.80;79.20
74368;DHT22;64991;41.090;-8.118;2023-09-19T19:41:56;23.80;79.20
74368;DHT22;64991;41.090;-8.118;2023-09-19T19:47:01;23.70;79.00
74368;DHT22;64991;41.090;-8.118;2023-09-19T19:52:05;23.80;79.20
74368;DHT22;64991;41.090;-8.118;2023-09-19T19:57:11;23.80;79.20
74368;DHT22;64991;41.090;-8.118;2023-09-19T20:02:15;23.80;79.00
74368;DHT22;64991;41.090;-8.118;2023-09-19T20:07:20;23.80;79.10
74368;DHT22;64991;41.090;-8.118;2023-09-19T20:12:26;23.80;79.00
74368;DHT22;64991;41.090;-8.118;2023-09-19T20:17:30;23.80;79.10
74368;DHT22;64991;41.090;-8.118;2023-09-19T20:22:34;23.80;79.20
74368;DHT22;64991;41.090;-8.118;2023-09-19T20:27:40;23.80;79.30
74368;DHT22;64991;41.090;-8.118;2023-09-19T20:32:46;23.80;79.20
74368;DHT22;64991;41.090;-8.118;2023-09-19T20:37:51;23.70;79.10
74368;DHT22;64991;41.090;-8.118;2023-09-19T20:42:58;23.80;79.00
74368;DHT22;64991;41.090;-8.118;2023-09-19T20:48:02;23.80;79.20
74368;DHT22;64991;41.090;-8.118;2023-09-19T20:53:06;23.80;79.20
74368;DHT22;64991;41.090;-8.118;2023-09-19T20:58:12;23.80;79.40
74368;DHT22;64991;41.090;-8.118;2023-09-19T21:03:15;23.80;79.20
74368;DHT22;64991;41.090;-8.118;2023-09-19T21:08:19;23.70;79.20
74368;DHT22;64991;41.090;-8.118;2023-09-19T21:13:25;23.70;79.10
74368;DHT22;64991;41.090;-8.118;2023-09-19T21:18:29;23.80;79.40
74368;DHT22;64991;41.090;-8.118;2023-09-19T21:23:33;23.70;79.10
74368;DHT22;64991;41.090;-8.118;2023-09-19T21:28:38;23.70;79.20
74368;DHT22;64991;41.090;-8.118;2023-09-19T21:33:43;23.70;79.20
74368;DHT22;64991;41.090;-8.118;2023-09-19T21:38:47;23.80;79.00
74368;DHT22;64991;41.090;-8.118;2023-09-19T21:43:52;23.80;78.90
74368;DHT22;64991;41.090;-8.118;2023-09-19T21:48:56;23.80;79.00
74368;DHT22;64991;41.090;-8.118;2023-09-19T21:54:06;23.70;79.00
74368;DHT22;64991;41.090;-8.118;2023-09-19T21:59:11;23.80;78.90
74368;DHT22;64991;41.090;-8.118;2023-09-19T22:04:16;23.80;78.90
74368;DHT22;64991;41.090;-8.118;2023-09-19T22:09:22;23.80;79.10
74368;DHT22;64991;41.090;-8.118;2023-09-19T22:14:27;23.80;78.80
74368;DHT22;64991;41.090;-8.118;2023-09-19T22:19:31;23.80;78.80
74368;DHT22;64991;41.090;-8.118;2023-09-19T22:24:35;23.80;79.00
74368;DHT22;64991;41.090;-8.118;2023-09-19T22:29:42;23.80;79.00
74368;DHT22;64991;41.090;-8.118;2023-09-19T22:34:46;23.80;78.80
74368;DHT22;64991;41.090;-8.118;2023-09-19T22:39:51;23.80;79.10
74368;DHT22;64991;41.090;-8.118;2023-09-19T22:44:56;23.70;78.90
74368;DHT22;64991;41.090;-8.118;2023-09-19T22:50:00;23.70;78.90
74368;DHT22;64991;41.090;-8.118;2023-09-19T22:55:15;23.80;79.00
74368;DHT22;64991;41.090;-8.118;2023-09-19T23:00:27;23.80;78.80
74368;DHT22;64991;41.090;-8.118;2023-09-19T23:05:33;23.70;78.60
74368;DHT22;64991;41.090;-8.118;2023-09-19T23:10:39;23.80;78.80
74368;DHT22;64991;41.090;-8.118;2023-09-19T23:15:47;23.80;78.70
74368;DHT22;64991;41.090;-8.118;2023-09-19T23:20:56;23.80;78.70
74368;DHT22;64991;41.090;-8.118;2023-09-19T23:26:16;23.80;78.60
74368;DHT22;64991;41.090;-8.118;2023-09-19T23:31:22;23.80;78.90
74368;DHT22;64991;41.090;-8.118;2023-09-19T23:36:26;23.70;78.60
74368;DHT22;64991;41.090;-8.118;2023-09-19T23:41:30;23.70;78.50
74368;DHT22;64991;41.090;-8.118;2023-09-19T23:46:35;23.70;78.90
74368;DHT22;64991;41.090;-8.118;2023-09-19T23:51:41;23.70;78.40
74368;DHT22;64991;41.090;-8.118;2023-09-19T23:56:45;23.80;78.60
